Terminal Aerodrome Forecast
Issued by NWS

Home | Current Version | Previous Version | Text Only | Print | Product List | Glossary On
Versions: 1 2 3 4 5 6 7 8 9 10 11 12 13 14 15 16 17 18
390
FTUS44 KEPZ 211137
TAFTCS
TAF
KTCS 211137Z 2112/2212 19010KT 6SM -SHRA BKN010
     FM211500 25024G36KT P6SM -SHRA BKN030
     FM212100 27028G38KT P6SM BKN080
     FM220100 28026G35KT P6SM SCT060
     FM220900 32011G18KT P6SM SCT250=

USA.gov is the U.S. government's official web portal to all federal, state and local government web resources and services.